sensor_id;sensor_type;location;lat;lon;timestamp;P1;durP1;ratioP1;P2;durP2;ratioP2
7306;SDS011;3694;48.732;9.248;2023-08-17T00:01:30;7.33;;;6.70;;
7306;SDS011;3694;48.732;9.248;2023-08-17T00:03:55;7.10;;;6.50;;
7306;SDS011;3694;48.732;9.248;2023-08-17T00:06:21;7.00;;;6.30;;
7306;SDS011;3694;48.732;9.248;2023-08-17T00:08:46;7.63;;;6.93;;
7306;SDS011;3694;48.732;9.248;2023-08-17T00:11:12;7.93;;;7.17;;
7306;SDS011;3694;48.732;9.248;2023-08-17T00:13:37;8.03;;;7.27;;
7306;SDS011;3694;48.732;9.248;2023-08-17T00:16:03;8.03;;;7.27;;
7306;SDS011;3694;48.732;9.248;2023-08-17T00:18:28;7.83;;;7.13;;
7306;SDS011;3694;48.732;9.248;2023-08-17T00:20:54;7.97;;;7.17;;
7306;SDS011;3694;48.732;9.248;2023-08-17T00:23:19;7.60;;;6.70;;
7306;SDS011;3694;48.732;9.248;2023-08-17T00:25:46;8.50;;;7.53;;
7306;SDS011;3694;48.732;9.248;2023-08-17T00:28:12;7.33;;;6.60;;
7306;SDS011;3694;48.732;9.248;2023-08-17T00:30:38;8.20;;;6.53;;
7306;SDS011;3694;48.732;9.248;2023-08-17T00:33:04;7.53;;;6.80;;
7306;SDS011;3694;48.732;9.248;2023-08-17T00:35:30;7.90;;;7.10;;
7306;SDS011;3694;48.732;9.248;2023-08-17T00:37:56;8.97;;;8.07;;
7306;SDS011;3694;48.732;9.248;2023-08-17T00:40:21;9.23;;;8.20;;
7306;SDS011;3694;48.732;9.248;2023-08-17T00:42:47;11.77;;;10.23;;
7306;SDS011;3694;48.732;9.248;2023-08-17T00:45:13;12.70;;;10.80;;
7306;SDS011;3694;48.732;9.248;2023-08-17T00:47:38;12.30;;;10.10;;
7306;SDS011;3694;48.732;9.248;2023-08-17T00:50:04;11.93;;;10.57;;
7306;SDS011;3694;48.732;9.248;2023-08-17T00:52:31;13.17;;;11.40;;
7306;SDS011;3694;48.732;9.248;2023-08-17T00:54:57;12.60;;;10.40;;
7306;SDS011;3694;48.732;9.248;2023-08-17T00:57:25;14.80;;;12.33;;
7306;SDS011;3694;48.732;9.248;2023-08-17T00:59:51;16.30;;;13.20;;
7306;SDS011;3694;48.732;9.248;2023-08-17T01:02:17;18.47;;;15.27;;
7306;SDS011;3694;48.732;9.248;2023-08-17T01:04:43;16.83;;;14.97;;
7306;SDS011;3694;48.732;9.248;2023-08-17T01:07:09;19.07;;;14.60;;
7306;SDS011;3694;48.732;9.248;2023-08-17T01:09:35;18.33;;;14.63;;
7306;SDS011;3694;48.732;9.248;2023-08-17T01:14:35;18.20;;;14.60;;
7306;SDS011;3694;48.732;9.248;2023-08-17T01:17:12;17.80;;;14.97;;
7306;SDS011;3694;48.732;9.248;2023-08-17T01:19:43;16.63;;;14.27;;
7306;SDS011;3694;48.732;9.248;2023-08-17T01:22:10;15.93;;;14.17;;
7306;SDS011;3694;48.732;9.248;2023-08-17T01:24:39;19.43;;;13.83;;
7306;SDS011;3694;48.732;9.248;2023-08-17T01:27:05;20.10;;;15.23;;
7306;SDS011;3694;48.732;9.248;2023-08-17T01:29:30;16.87;;;14.47;;
7306;SDS011;3694;48.732;9.248;2023-08-17T01:32:13;17.67;;;15.77;;
7306;SDS011;3694;48.732;9.248;2023-08-17T01:35:14;18.53;;;16.10;;
7306;SDS011;3694;48.732;9.248;2023-08-17T01:37:50;18.53;;;15.93;;
7306;SDS011;3694;48.732;9.248;2023-08-17T01:40:17;17.77;;;15.37;;
7306;SDS011;3694;48.732;9.248;2023-08-17T01:42:44;19.60;;;15.63;;
7306;SDS011;3694;48.732;9.248;2023-08-17T01:45:10;16.77;;;14.93;;
7306;SDS011;3694;48.732;9.248;2023-08-17T01:47:36;21.67;;;16.60;;
7306;SDS011;3694;48.732;9.248;2023-08-17T01:50:02;21.50;;;17.40;;
7306;SDS011;3694;48.732;9.248;2023-08-17T01:52:28;21.30;;;17.73;;
7306;SDS011;3694;48.732;9.248;2023-08-17T01:54:53;19.47;;;16.37;;
7306;SDS011;3694;48.732;9.248;2023-08-17T01:57:19;21.37;;;17.40;;
7306;SDS011;3694;48.732;9.248;2023-08-17T01:59:45;19.93;;;17.17;;
7306;SDS011;3694;48.732;9.248;2023-08-17T02:02:11;21.77;;;17.80;;
7306;SDS011;3694;48.732;9.248;2023-08-17T02:04:39;19.97;;;16.77;;
7306;SDS011;3694;48.732;9.248;2023-08-17T02:07:05;18.10;;;16.20;;
7306;SDS011;3694;48.732;9.248;2023-08-17T02:09:30;23.80;;;18.67;;
7306;SDS011;3694;48.732;9.248;2023-08-17T02:11:56;20.93;;;17.77;;
7306;SDS011;3694;48.732;9.248;2023-08-17T02:14:21;20.67;;;17.83;;
7306;SDS011;3694;48.732;9.248;2023-08-17T02:16:47;21.03;;;17.87;;
7306;SDS011;3694;48.732;9.248;2023-08-17T02:19:12;18.50;;;16.23;;
7306;SDS011;3694;48.732;9.248;2023-08-17T02:21:38;19.10;;;16.83;;
7306;SDS011;3694;48.732;9.248;2023-08-17T02:24:04;17.70;;;15.43;;
7306;SDS011;3694;48.732;9.248;2023-08-17T02:26:30;17.40;;;14.67;;
7306;SDS011;3694;48.732;9.248;2023-08-17T02:28:55;17.73;;;15.83;;
7306;SDS011;3694;48.732;9.248;2023-08-17T02:31:21;17.40;;;15.10;;
7306;SDS011;3694;48.732;9.248;2023-08-17T02:33:46;18.07;;;14.87;;
7306;SDS011;3694;48.732;9.248;2023-08-17T02:36:12;20.60;;;15.77;;
7306;SDS011;3694;48.732;9.248;2023-08-17T02:38:37;19.13;;;14.83;;
7306;SDS011;3694;48.732;9.248;2023-08-17T02:41:03;21.33;;;15.80;;
7306;SDS011;3694;48.732;9.248;2023-08-17T02:43:29;19.07;;;15.77;;
7306;SDS011;3694;48.732;9.248;2023-08-17T02:45:57;16.47;;;14.13;;
7306;SDS011;3694;48.732;9.248;2023-08-17T02:48:24;17.23;;;15.23;;
7306;SDS011;3694;48.732;9.248;2023-08-17T02:50:50;17.57;;;15.03;;
7306;SDS011;3694;48.732;9.248;2023-08-17T02:53:15;17.60;;;14.63;;
7306;SDS011;3694;48.732;9.248;2023-08-17T02:55:41;19.77;;;15.33;;
7306;SDS011;3694;48.732;9.248;2023-08-17T02:58:06;16.53;;;14.17;;
7306;SDS011;3694;48.732;9.248;2023-08-17T03:00:32;16.73;;;13.73;;
7306;SDS011;3694;48.732;9.248;2023-08-17T03:02:57;18.07;;;14.47;;
7306;SDS011;3694;48.732;9.248;2023-08-17T03:05:23;16.23;;;14.37;;
7306;SDS011;3694;48.732;9.248;2023-08-17T03:07:48;16.00;;;14.07;;
7306;SDS011;3694;48.732;9.248;2023-08-17T03:10:14;16.00;;;13.83;;
7306;SDS011;3694;48.732;9.248;2023-08-17T03:12:40;17.20;;;14.50;;
7306;SDS011;3694;48.732;9.248;2023-08-17T03:15:06;16.33;;;13.70;;
7306;SDS011;3694;48.732;9.248;2023-08-17T03:17:31;18.10;;;16.20;;
7306;SDS011;3694;48.732;9.248;2023-08-17T03:19:57;19.93;;;17.40;;
7306;SDS011;3694;48.732;9.248;2023-08-17T03:22:25;18.20;;;16.17;;
7306;SDS011;3694;48.732;9.248;2023-08-17T03:24:50;18.60;;;16.60;;
7306;SDS011;3694;48.732;9.248;2023-08-17T03:27:16;19.57;;;16.17;;
7306;SDS011;3694;48.732;9.248;2023-08-17T03:29:41;20.90;;;16.47;;
7306;SDS011;3694;48.732;9.248;2023-08-17T03:32:07;18.33;;;16.07;;
7306;SDS011;3694;48.732;9.248;2023-08-17T03:34:32;19.03;;;16.00;;
7306;SDS011;3694;48.732;9.248;2023-08-17T03:36:58;18.13;;;16.17;;
7306;SDS011;3694;48.732;9.248;2023-08-17T03:39:23;19.97;;;15.67;;
7306;SDS011;3694;48.732;9.248;2023-08-17T03:41:49;18.70;;;16.10;;
7306;SDS011;3694;48.732;9.248;2023-08-17T03:44:15;17.37;;;15.00;;
7306;SDS011;3694;48.732;9.248;2023-08-17T03:46:41;17.73;;;15.80;;
7306;SDS011;3694;48.732;9.248;2023-08-17T03:49:06;20.13;;;15.40;;
7306;SDS011;3694;48.732;9.248;2023-08-17T03:51:32;18.30;;;16.27;;
7306;SDS011;3694;48.732;9.248;2023-08-17T03:53:57;18.33;;;15.20;;
7306;SDS011;3694;48.732;9.248;2023-08-17T03:56:23;18.73;;;15.87;;
7306;SDS011;3694;48.732;9.248;2023-08-17T03:58:49;16.67;;;14.97;;
7306;SDS011;3694;48.732;9.248;2023-08-17T04:01:15;19.73;;;16.40;;
7306;SDS011;3694;48.732;9.248;2023-08-17T04:03:40;18.00;;;14.97;;
7306;SDS011;3694;48.732;9.248;2023-08-17T04:06:06;17.77;;;15.20;;
7306;SDS011;3694;48.732;9.248;2023-08-17T04:08:35;18.27;;;15.67;;
7306;SDS011;3694;48.732;9.248;2023-08-17T04:11:03;17.80;;;15.90;;
7306;SDS011;3694;48.732;9.248;2023-08-17T04:13:30;18.63;;;15.20;;
7306;SDS011;3694;48.732;9.248;2023-08-17T04:15:56;18.27;;;15.60;;
7306;SDS011;3694;48.732;9.248;2023-08-17T04:18:22;19.00;;;15.40;;
7306;SDS011;3694;48.732;9.248;2023-08-17T04:20:47;19.50;;;16.07;;
7306;SDS011;3694;48.732;9.248;2023-08-17T04:23:13;18.50;;;15.30;;
7306;SDS011;3694;48.732;9.248;2023-08-17T04:25:39;21.00;;;14.97;;
7306;SDS011;3694;48.732;9.248;2023-08-17T04:28:05;19.87;;;15.60;;
7306;SDS011;3694;48.732;9.248;2023-08-17T04:30:30;18.10;;;15.70;;
7306;SDS011;3694;48.732;9.248;2023-08-17T04:32:56;18.03;;;15.50;;
7306;SDS011;3694;48.732;9.248;2023-08-17T04:35:21;19.57;;;15.67;;
7306;SDS011;3694;48.732;9.248;2023-08-17T04:37:47;18.90;;;16.30;;
7306;SDS011;3694;48.732;9.248;2023-08-17T04:40:13;18.53;;;15.87;;
7306;SDS011;3694;48.732;9.248;2023-08-17T04:42:39;17.87;;;15.13;;
7306;SDS011;3694;48.732;9.248;2023-08-17T04:45:05;20.47;;;15.67;;
7306;SDS011;3694;48.732;9.248;2023-08-17T04:47:31;19.13;;;16.30;;
7306;SDS011;3694;48.732;9.248;2023-08-17T04:49:56;18.87;;;14.97;;
7306;SDS011;3694;48.732;9.248;2023-08-17T04:52:22;19.37;;;15.37;;
7306;SDS011;3694;48.732;9.248;2023-08-17T04:54:47;19.03;;;15.73;;
7306;SDS011;3694;48.732;9.248;2023-08-17T04:57:13;19.00;;;15.70;;
7306;SDS011;3694;48.732;9.248;2023-08-17T04:59:38;17.40;;;14.03;;
7306;SDS011;3694;48.732;9.248;2023-08-17T05:02:05;18.67;;;14.73;;
7306;SDS011;3694;48.732;9.248;2023-08-17T05:04:31;16.63;;;14.03;;
7306;SDS011;3694;48.732;9.248;2023-08-17T05:06:56;16.47;;;14.63;;
7306;SDS011;3694;48.732;9.248;2023-08-17T05:09:22;17.73;;;14.97;;
7306;SDS011;3694;48.732;9.248;2023-08-17T05:11:47;16.00;;;13.60;;
7306;SDS011;3694;48.732;9.248;2023-08-17T05:14:13;16.20;;;13.63;;
7306;SDS011;3694;48.732;9.248;2023-08-17T05:16:39;17.20;;;14.30;;
7306;SDS011;3694;48.732;9.248;2023-08-17T05:19:04;18.10;;;13.60;;
7306;SDS011;3694;48.732;9.248;2023-08-17T05:21:30;16.17;;;14.10;;
7306;SDS011;3694;48.732;9.248;2023-08-17T05:23:56;15.37;;;12.70;;
7306;SDS011;3694;48.732;9.248;2023-08-17T05:26:21;16.47;;;13.27;;
7306;SDS011;3694;48.732;9.248;2023-08-17T05:28:47;13.80;;;12.30;;
7306;SDS011;3694;48.732;9.248;2023-08-17T05:31:13;16.37;;;13.10;;
7306;SDS011;3694;48.732;9.248;2023-08-17T05:33:39;15.13;;;13.57;;
7306;SDS011;3694;48.732;9.248;2023-08-17T05:36:06;13.37;;;11.97;;
7306;SDS011;3694;48.732;9.248;2023-08-17T05:38:32;12.57;;;10.80;;
7306;SDS011;3694;48.732;9.248;2023-08-17T05:40:58;13.60;;;11.13;;
7306;SDS011;3694;48.732;9.248;2023-08-17T05:43:24;12.53;;;11.23;;
7306;SDS011;3694;48.732;9.248;2023-08-17T05:45:50;11.20;;;10.07;;
7306;SDS011;3694;48.732;9.248;2023-08-17T05:48:18;11.27;;;10.17;;
7306;SDS011;3694;48.732;9.248;2023-08-17T05:50:45;11.50;;;10.30;;
7306;SDS011;3694;48.732;9.248;2023-08-17T05:53:11;11.47;;;10.27;;
7306;SDS011;3694;48.732;9.248;2023-08-17T05:55:37;12.40;;;10.63;;
7306;SDS011;3694;48.732;9.248;2023-08-17T05:58:02;11.33;;;10.13;;
7306;SDS011;3694;48.732;9.248;2023-08-17T06:00:29;11.30;;;9.60;;
7306;SDS011;3694;48.732;9.248;2023-08-17T06:02:55;10.93;;;9.83;;
7306;SDS011;3694;48.732;9.248;2023-08-17T06:05:25;12.93;;;10.87;;
7306;SDS011;3694;48.732;9.248;2023-08-17T06:07:52;10.90;;;9.80;;
7306;SDS011;3694;48.732;9.248;2023-08-17T06:10:17;10.37;;;9.33;;
7306;SDS011;3694;48.732;9.248;2023-08-17T06:12:43;11.10;;;9.93;;
7306;SDS011;3694;48.732;9.248;2023-08-17T06:15:09;10.23;;;9.20;;
7306;SDS011;3694;48.732;9.248;2023-08-17T06:17:34;11.03;;;9.67;;
7306;SDS011;3694;48.732;9.248;2023-08-17T06:20:00;10.53;;;9.43;;
7306;SDS011;3694;48.732;9.248;2023-08-17T06:22:27;9.37;;;8.47;;
7306;SDS011;3694;48.732;9.248;2023-08-17T06:24:53;10.80;;;9.70;;
7306;SDS011;3694;48.732;9.248;2023-08-17T06:27:18;11.60;;;10.40;;
7306;SDS011;3694;48.732;9.248;2023-08-17T06:29:44;12.33;;;10.07;;
7306;SDS011;3694;48.732;9.248;2023-08-17T06:32:10;12.80;;;9.27;;
7306;SDS011;3694;48.732;9.248;2023-08-17T06:34:35;10.73;;;9.67;;
7306;SDS011;3694;48.732;9.248;2023-08-17T06:37:02;11.07;;;9.97;;
7306;SDS011;3694;48.732;9.248;2023-08-17T06:39:28;11.93;;;10.73;;
7306;SDS011;3694;48.732;9.248;2023-08-17T06:41:54;12.33;;;10.27;;
7306;SDS011;3694;48.732;9.248;2023-08-17T06:44:20;12.33;;;11.13;;
7306;SDS011;3694;48.732;9.248;2023-08-17T06:46:46;12.80;;;10.47;;
7306;SDS011;3694;48.732;9.248;2023-08-17T06:49:12;11.53;;;10.33;;
7306;SDS011;3694;48.732;9.248;2023-08-17T06:51:37;11.67;;;10.23;;
7306;SDS011;3694;48.732;9.248;2023-08-17T06:54:04;12.53;;;10.67;;
7306;SDS011;3694;48.732;9.248;2023-08-17T06:56:30;12.87;;;11.47;;
7306;SDS011;3694;48.732;9.248;2023-08-17T06:58:56;15.83;;;12.27;;
7306;SDS011;3694;48.732;9.248;2023-08-17T07:01:21;13.37;;;12.07;;
7306;SDS011;3694;48.732;9.248;2023-08-17T07:03:47;16.83;;;12.90;;
7306;SDS011;3694;48.732;9.248;2023-08-17T07:06:12;14.03;;;12.53;;
7306;SDS011;3694;48.732;9.248;2023-08-17T07:08:38;13.82;;;12.10;;
7306;SDS011;3694;48.732;9.248;2023-08-17T07:11:04;14.07;;;11.85;;
7306;SDS011;3694;48.732;9.248;2023-08-17T07:13:31;13.75;;;11.40;;
7306;SDS011;3694;48.732;9.248;2023-08-17T07:15:56;12.40;;;11.05;;
7306;SDS011;3694;48.732;9.248;2023-08-17T07:18:22;12.18;;;10.88;;
7306;SDS011;3694;48.732;9.248;2023-08-17T07:20:47;12.27;;;10.60;;
7306;SDS011;3694;48.732;9.248;2023-08-17T07:23:14;11.80;;;10.70;;
7306;SDS011;3694;48.732;9.248;2023-08-17T07:25:40;11.80;;;10.60;;
7306;SDS011;3694;48.732;9.248;2023-08-17T07:28:05;12.80;;;10.68;;
7306;SDS011;3694;48.732;9.248;2023-08-17T07:30:31;11.98;;;10.63;;
7306;SDS011;3694;48.732;9.248;2023-08-17T07:32:57;13.35;;;12.02;;
7306;SDS011;3694;48.732;9.248;2023-08-17T07:35:22;12.00;;;10.80;;
7306;SDS011;3694;48.732;9.248;2023-08-17T07:37:48;12.32;;;11.02;;
7306;SDS011;3694;48.732;9.248;2023-08-17T07:40:13;13.65;;;12.20;;
7306;SDS011;3694;48.732;9.248;2023-08-17T07:42:39;13.73;;;12.32;;
7306;SDS011;3694;48.732;9.248;2023-08-17T07:45:04;13.82;;;11.57;;
7306;SDS011;3694;48.732;9.248;2023-08-17T07:47:33;14.48;;;12.38;;
7306;SDS011;3694;48.732;9.248;2023-08-17T07:49:59;13.75;;;12.30;;
7306;SDS011;3694;48.732;9.248;2023-08-17T07:52:25;13.43;;;12.07;;
7306;SDS011;3694;48.732;9.248;2023-08-17T07:54:50;12.52;;;11.10;;
7306;SDS011;3694;48.732;9.248;2023-08-17T07:57:16;13.15;;;11.85;;
7306;SDS011;3694;48.732;9.248;2023-08-17T07:59:42;11.30;;;10.18;;
7306;SDS011;3694;48.732;9.248;2023-08-17T08:02:07;12.38;;;10.02;;
7306;SDS011;3694;48.732;9.248;2023-08-17T08:04:33;10.68;;;9.57;;
7306;SDS011;3694;48.732;9.248;2023-08-17T08:06:58;10.02;;;9.00;;
7306;SDS011;3694;48.732;9.248;2023-08-17T08:09:24;11.88;;;10.65;;
7306;SDS011;3694;48.732;9.248;2023-08-17T08:11:49;11.23;;;10.02;;
7306;SDS011;3694;48.732;9.248;2023-08-17T08:14:15;10.98;;;9.88;;
7306;SDS011;3694;48.732;9.248;2023-08-17T08:16:42;9.75;;;8.75;;
7306;SDS011;3694;48.732;9.248;2023-08-17T08:19:07;10.90;;;9.82;;
7306;SDS011;3694;48.732;9.248;2023-08-17T08:21:33;10.77;;;9.68;;
7306;SDS011;3694;48.732;9.248;2023-08-17T08:23:58;10.73;;;9.63;;
7306;SDS011;3694;48.732;9.248;2023-08-17T08:26:24;10.07;;;8.98;;
7306;SDS011;3694;48.732;9.248;2023-08-17T08:28:49;9.13;;;8.20;;
7306;SDS011;3694;48.732;9.248;2023-08-17T08:31:15;10.55;;;9.55;;
7306;SDS011;3694;48.732;9.248;2023-08-17T08:33:40;9.55;;;8.55;;
7306;SDS011;3694;48.732;9.248;2023-08-17T08:36:06;9.30;;;8.40;;
7306;SDS011;3694;48.732;9.248;2023-08-17T08:38:31;9.05;;;8.25;;
7306;SDS011;3694;48.732;9.248;2023-08-17T08:40:57;11.18;;;9.27;;
7306;SDS011;3694;48.732;9.248;2023-08-17T08:43:23;11.43;;;8.52;;
7306;SDS011;3694;48.732;9.248;2023-08-17T08:45:49;8.85;;;7.70;;
7306;SDS011;3694;48.732;9.248;2023-08-17T08:48:17;10.63;;;7.15;;
7306;SDS011;3694;48.732;9.248;2023-08-17T08:50:44;8.23;;;7.43;;
7306;SDS011;3694;48.732;9.248;2023-08-17T08:53:14;8.20;;;7.40;;
7306;SDS011;3694;48.732;9.248;2023-08-17T08:56:15;9.13;;;8.23;;
7306;SDS011;3694;48.732;9.248;2023-08-17T08:58:36;8.20;;;7.15;;
7306;SDS011;3694;48.732;9.248;2023-08-17T09:01:03;7.35;;;6.65;;
7306;SDS011;3694;48.732;9.248;2023-08-17T09:03:29;8.55;;;6.72;;
7306;SDS011;3694;48.732;9.248;2023-08-17T09:05:57;6.72;;;6.15;;
7306;SDS011;3694;48.732;9.248;2023-08-17T09:08:24;6.20;;;5.60;;
7306;SDS011;3694;48.732;9.248;2023-08-17T09:10:52;6.07;;;5.57;;
7306;SDS011;3694;48.732;9.248;2023-08-17T09:13:18;6.15;;;5.65;;
7306;SDS011;3694;48.732;9.248;2023-08-17T09:15:44;6.72;;;6.13;;
7306;SDS011;3694;48.732;9.248;2023-08-17T09:18:09;5.55;;;5.07;;
7306;SDS011;3694;48.732;9.248;2023-08-17T09:20:39;5.85;;;5.25;;
7306;SDS011;3694;48.732;9.248;2023-08-17T09:23:12;5.53;;;5.03;;
7306;SDS011;3694;48.732;9.248;2023-08-17T09:25:42;6.20;;;5.70;;
7306;SDS011;3694;48.732;9.248;2023-08-17T09:28:10;5.90;;;5.25;;
7306;SDS011;3694;48.732;9.248;2023-08-17T09:33:29;6.53;;;4.88;;
7306;SDS011;3694;48.732;9.248;2023-08-17T09:35:55;5.60;;;4.63;;
7306;SDS011;3694;48.732;9.248;2023-08-17T09:38:22;5.30;;;4.80;;
7306;SDS011;3694;48.732;9.248;2023-08-17T09:40:48;4.10;;;3.78;;
7306;SDS011;3694;48.732;9.248;2023-08-17T09:43:14;4.57;;;4.10;;
7306;SDS011;3694;48.732;9.248;2023-08-17T09:45:41;4.45;;;4.05;;
7306;SDS011;3694;48.732;9.248;2023-08-17T09:48:09;5.03;;;4.63;;
7306;SDS011;3694;48.732;9.248;2023-08-17T09:50:35;4.05;;;3.75;;
7306;SDS011;3694;48.732;9.248;2023-08-17T09:53:04;4.30;;;4.00;;
7306;SDS011;3694;48.732;9.248;2023-08-17T09:55:30;4.13;;;3.83;;
7306;SDS011;3694;48.732;9.248;2023-08-17T09:57:59;5.30;;;3.90;;
7306;SDS011;3694;48.732;9.248;2023-08-17T10:00:25;4.20;;;3.80;;
7306;SDS011;3694;48.732;9.248;2023-08-17T10:02:52;4.72;;;4.22;;
7306;SDS011;3694;48.732;9.248;2023-08-17T10:05:18;5.05;;;4.65;;
7306;SDS011;3694;48.732;9.248;2023-08-17T10:07:51;4.78;;;4.30;;
7306;SDS011;3694;48.732;9.248;2023-08-17T10:10:22;4.85;;;4.45;;
7306;SDS011;3694;48.732;9.248;2023-08-17T10:15:29;4.35;;;3.95;;
7306;SDS011;3694;48.732;9.248;2023-08-17T10:18:41;3.92;;;3.63;;
7306;SDS011;3694;48.732;9.248;2023-08-17T10:21:07;4.13;;;3.80;;
7306;SDS011;3694;48.732;9.248;2023-08-17T10:23:46;4.03;;;3.63;;
7306;SDS011;3694;48.732;9.248;2023-08-17T10:26:11;4.45;;;3.90;;
7306;SDS011;3694;48.732;9.248;2023-08-17T10:28:37;3.90;;;3.60;;
7306;SDS011;3694;48.732;9.248;2023-08-17T10:31:04;4.90;;;4.50;;
7306;SDS011;3694;48.732;9.248;2023-08-17T10:33:30;5.32;;;4.30;;
7306;SDS011;3694;48.732;9.248;2023-08-17T10:35:56;4.97;;;4.38;;
7306;SDS011;3694;48.732;9.248;2023-08-17T10:38:22;4.28;;;3.88;;
7306;SDS011;3694;48.732;9.248;2023-08-17T10:41:07;4.03;;;3.63;;
7306;SDS011;3694;48.732;9.248;2023-08-17T10:43:33;5.07;;;4.68;;
7306;SDS011;3694;48.732;9.248;2023-08-17T10:46:15;5.57;;;4.65;;
7306;SDS011;3694;48.732;9.248;2023-08-17T10:48:43;4.05;;;3.75;;
7306;SDS011;3694;48.732;9.248;2023-08-17T10:51:09;4.20;;;3.30;;
7306;SDS011;3694;48.732;9.248;2023-08-17T10:53:38;3.83;;;3.50;;
7306;SDS011;3694;48.732;9.248;2023-08-17T10:56:11;3.78;;;3.47;;
7306;SDS011;3694;48.732;9.248;2023-08-17T10:58:38;3.92;;;3.63;;
7306;SDS011;3694;48.732;9.248;2023-08-17T11:01:04;4.22;;;3.92;;
7306;SDS011;3694;48.732;9.248;2023-08-17T11:03:30;5.45;;;3.88;;
7306;SDS011;3694;48.732;9.248;2023-08-17T11:05:55;3.92;;;3.63;;
7306;SDS011;3694;48.732;9.248;2023-08-17T11:08:34;3.60;;;3.30;;
7306;SDS011;3694;48.732;9.248;2023-08-17T11:13:31;4.00;;;3.70;;
7306;SDS011;3694;48.732;9.248;2023-08-17T11:16:01;4.38;;;3.97;;
7306;SDS011;3694;48.732;9.248;2023-08-17T11:18:27;3.83;;;3.53;;
7306;SDS011;3694;48.732;9.248;2023-08-17T11:20:54;3.60;;;3.30;;
7306;SDS011;3694;48.732;9.248;2023-08-17T11:23:20;3.42;;;3.13;;
7306;SDS011;3694;48.732;9.248;2023-08-17T11:25:47;3.60;;;3.30;;
7306;SDS011;3694;48.732;9.248;2023-08-17T11:28:13;3.88;;;3.58;;
7306;SDS011;3694;48.732;9.248;2023-08-17T11:30:40;3.50;;;3.30;;
7306;SDS011;3694;48.732;9.248;2023-08-17T11:33:07;3.30;;;3.00;;
7306;SDS011;3694;48.732;9.248;2023-08-17T11:35:33;3.33;;;3.13;;
7306;SDS011;3694;48.732;9.248;2023-08-17T11:37:59;3.42;;;3.15;;
7306;SDS011;3694;48.732;9.248;2023-08-17T11:40:25;3.85;;;3.55;;
7306;SDS011;3694;48.732;9.248;2023-08-17T11:42:52;4.25;;;3.95;;
7306;SDS011;3694;48.732;9.248;2023-08-17T11:45:18;4.57;;;4.18;;
7306;SDS011;3694;48.732;9.248;2023-08-17T11:47:43;4.57;;;3.92;;
7306;SDS011;3694;48.732;9.248;2023-08-17T11:50:10;4.65;;;4.20;;
7306;SDS011;3694;48.732;9.248;2023-08-17T11:52:36;5.15;;;4.05;;
7306;SDS011;3694;48.732;9.248;2023-08-17T11:55:03;4.00;;;3.17;;
7306;SDS011;3694;48.732;9.248;2023-08-17T11:57:33;3.63;;;3.33;;
7306;SDS011;3694;48.732;9.248;2023-08-17T11:59:59;3.30;;;3.03;;
7306;SDS011;3694;48.732;9.248;2023-08-17T12:02:26;4.28;;;3.92;;
7306;SDS011;3694;48.732;9.248;2023-08-17T12:04:52;4.68;;;4.28;;
7306;SDS011;3694;48.732;9.248;2023-08-17T12:07:21;4.90;;;4.38;;
7306;SDS011;3694;48.732;9.248;2023-08-17T12:09:48;5.10;;;4.70;;
7306;SDS011;3694;48.732;9.248;2023-08-17T12:12:18;6.90;;;5.50;;
7306;SDS011;3694;48.732;9.248;2023-08-17T12:14:46;6.75;;;5.00;;
7306;SDS011;3694;48.732;9.248;2023-08-17T12:17:15;5.30;;;4.90;;
7306;SDS011;3694;48.732;9.248;2023-08-17T12:19:42;6.10;;;5.53;;
7306;SDS011;3694;48.732;9.248;2023-08-17T12:22:08;6.03;;;5.45;;
7306;SDS011;3694;48.732;9.248;2023-08-17T12:24:34;6.18;;;5.68;;
7306;SDS011;3694;48.732;9.248;2023-08-17T12:27:02;5.55;;;5.05;;
7306;SDS011;3694;48.732;9.248;2023-08-17T12:29:28;5.80;;;5.30;;
7306;SDS011;3694;48.732;9.248;2023-08-17T12:31:56;6.53;;;5.90;;
7306;SDS011;3694;48.732;9.248;2023-08-17T12:34:22;5.97;;;5.47;;
7306;SDS011;3694;48.732;9.248;2023-08-17T12:36:48;5.40;;;4.97;;
7306;SDS011;3694;48.732;9.248;2023-08-17T12:39:14;6.45;;;5.82;;
7306;SDS011;3694;48.732;9.248;2023-08-17T12:41:40;7.80;;;5.50;;
7306;SDS011;3694;48.732;9.248;2023-08-17T12:44:06;6.18;;;5.57;;
7306;SDS011;3694;48.732;9.248;2023-08-17T12:46:34;6.30;;;5.70;;
7306;SDS011;3694;48.732;9.248;2023-08-17T12:49:00;6.20;;;5.60;;
7306;SDS011;3694;48.732;9.248;2023-08-17T12:51:25;5.93;;;5.35;;
7306;SDS011;3694;48.732;9.248;2023-08-17T12:53:51;7.78;;;6.45;;
7306;SDS011;3694;48.732;9.248;2023-08-17T12:56:16;9.85;;;6.20;;
7306;SDS011;3694;48.732;9.248;2023-08-17T12:58:42;6.22;;;5.70;;
7306;SDS011;3694;48.732;9.248;2023-08-17T13:01:08;6.47;;;5.82;;
7306;SDS011;3694;48.732;9.248;2023-08-17T13:03:33;6.72;;;6.13;;
7306;SDS011;3694;48.732;9.248;2023-08-17T13:05:59;6.88;;;5.93;;
7306;SDS011;3694;48.732;9.248;2023-08-17T13:08:24;6.90;;;6.18;;
7306;SDS011;3694;48.732;9.248;2023-08-17T13:10:50;7.30;;;6.53;;
7306;SDS011;3694;48.732;9.248;2023-08-17T13:13:15;6.20;;;5.57;;
7306;SDS011;3694;48.732;9.248;2023-08-17T13:15:41;6.90;;;6.30;;
7306;SDS011;3694;48.732;9.248;2023-08-17T13:18:07;7.03;;;6.13;;
7306;SDS011;3694;48.732;9.248;2023-08-17T13:20:32;6.18;;;5.57;;
7306;SDS011;3694;48.732;9.248;2023-08-17T13:22:58;8.20;;;5.68;;
7306;SDS011;3694;48.732;9.248;2023-08-17T13:25:24;6.40;;;5.80;;
7306;SDS011;3694;48.732;9.248;2023-08-17T13:27:49;6.50;;;5.57;;
7306;SDS011;3694;48.732;9.248;2023-08-17T13:30:15;5.97;;;5.47;;
7306;SDS011;3694;48.732;9.248;2023-08-17T13:32:41;5.90;;;5.23;;
7306;SDS011;3694;48.732;9.248;2023-08-17T13:35:06;6.60;;;6.00;;
7306;SDS011;3694;48.732;9.248;2023-08-17T13:37:32;6.20;;;5.57;;
7306;SDS011;3694;48.732;9.248;2023-08-17T13:39:57;5.30;;;4.90;;
7306;SDS011;3694;48.732;9.248;2023-08-17T13:42:25;5.60;;;5.10;;
7306;SDS011;3694;48.732;9.248;2023-08-17T13:44:50;5.03;;;4.57;;
7306;SDS011;3694;48.732;9.248;2023-08-17T13:47:16;5.43;;;4.93;;
7306;SDS011;3694;48.732;9.248;2023-08-17T13:49:41;5.03;;;4.53;;
7306;SDS011;3694;48.732;9.248;2023-08-17T13:52:10;5.30;;;4.90;;
7306;SDS011;3694;48.732;9.248;2023-08-17T13:54:35;5.60;;;5.10;;
7306;SDS011;3694;48.732;9.248;2023-08-17T13:57:01;5.67;;;4.80;;
7306;SDS011;3694;48.732;9.248;2023-08-17T13:59:26;5.03;;;4.63;;
7306;SDS011;3694;48.732;9.248;2023-08-17T14:01:52;7.43;;;5.70;;
7306;SDS011;3694;48.732;9.248;2023-08-17T14:04:18;4.97;;;4.53;;
7306;SDS011;3694;48.732;9.248;2023-08-17T14:06:43;6.03;;;5.43;;
7306;SDS011;3694;48.732;9.248;2023-08-17T14:09:09;5.57;;;4.97;;
7306;SDS011;3694;48.732;9.248;2023-08-17T14:11:34;5.90;;;5.40;;
7306;SDS011;3694;48.732;9.248;2023-08-17T14:14:00;5.70;;;5.20;;
7306;SDS011;3694;48.732;9.248;2023-08-17T14:16:26;5.03;;;4.63;;
7306;SDS011;3694;48.732;9.248;2023-08-17T14:18:52;5.67;;;5.17;;
7306;SDS011;3694;48.732;9.248;2023-08-17T14:21:17;5.83;;;5.20;;
7306;SDS011;3694;48.732;9.248;2023-08-17T14:23:43;6.47;;;4.63;;
7306;SDS011;3694;48.732;9.248;2023-08-17T14:26:09;6.43;;;5.40;;
7306;SDS011;3694;48.732;9.248;2023-08-17T14:28:36;6.03;;;5.53;;
7306;SDS011;3694;48.732;9.248;2023-08-17T14:31:01;6.33;;;5.73;;
7306;SDS011;3694;48.732;9.248;2023-08-17T14:33:27;6.03;;;5.30;;
7306;SDS011;3694;48.732;9.248;2023-08-17T14:35:52;6.20;;;5.70;;
7306;SDS011;3694;48.732;9.248;2023-08-17T14:38:18;6.30;;;5.70;;
7306;SDS011;3694;48.732;9.248;2023-08-17T14:40:44;8.37;;;6.83;;
7306;SDS011;3694;48.732;9.248;2023-08-17T14:43:11;6.77;;;6.10;;
7306;SDS011;3694;48.732;9.248;2023-08-17T14:45:39;7.30;;;6.00;;
7306;SDS011;3694;48.732;9.248;2023-08-17T14:48:05;6.77;;;6.17;;
7306;SDS011;3694;48.732;9.248;2023-08-17T14:50:32;6.53;;;6.03;;
7306;SDS011;3694;48.732;9.248;2023-08-17T14:52:58;6.90;;;6.30;;
7306;SDS011;3694;48.732;9.248;2023-08-17T14:55:26;8.03;;;6.00;;
7306;SDS011;3694;48.732;9.248;2023-08-17T14:57:52;6.87;;;6.20;;
7306;SDS011;3694;48.732;9.248;2023-08-17T15:00:17;6.90;;;6.30;;
7306;SDS011;3694;48.732;9.248;2023-08-17T15:02:43;6.50;;;5.90;;
7306;SDS011;3694;48.732;9.248;2023-08-17T15:05:08;6.83;;;6.23;;
7306;SDS011;3694;48.732;9.248;2023-08-17T15:07:34;6.70;;;6.10;;
7306;SDS011;3694;48.732;9.248;2023-08-17T15:09:59;6.73;;;6.03;;